My Meet Scores
Cecelia Mottet, Phenom Gymnastics - MyMeetScores.com
Top100 | Top Teams | Upcoming Meets | Completed Meets | Latest | Add Scores | Help| Support | Bookmark and Share

Cecelia Mottet, Phenom Gymnastics
Personal Bests
LevelVault BarsBeamFloorAA
39.6009.750 9.5259.77538.275
49.3509.625 9.7259.52538.075
Meet Scores
Date Meet Team Session Level Division Vault Bars Beam Floor AA
2020-03-06 Illinois Level 4 State Championships Phenom Gymnastics 6 4 Sr C 9.350 4T 9.600 4 9.725 2T 9.400 6T 38.075 4
2020-02-21 Kinetic Classic Phenom Gymnastics 07 4 Older 8.950 16 9.425 12T 9.650 1 9.525 4 37.550 5
2020-02-14 Big Classic Phenom Gymnastics 6B 4 Child D 9.000 21T 9.625 2T 9.350 8T 9.300 14T 37.275 6
2020-01-31 Big Chill Phenom Gymnastics 2 4 11+ 8.450 8T 9.200 3 9.550 3T 8.975 5 36.175 5
2020-01-17 2020 Bravo Classic Phenom Gymnastics 10B 4 Sr 8.050 16 9.475 6T 9.400 2T 9.025 9 35.950 7
2019-12-20 Aspire Classic - 2019 Phenom Gymnastics 8A 4 Older 8.625 11 9.550 2 9.475 9 9.400 3 37.050 3T
2019-12-13 MEGA Magic Classic 2019 Phenom Gymnastics 3B 4 Sr A 9.075 5 8.900 12T 8.525 11 9.150 4 35.650 7
2019-03-08 2019 Illinois Level 3 State Championship Phenom Gymnastics 2 3 Sr B 9.450 10T 9.700 2T 9.425 6T 9.525 4 38.100 3
2019-02-23 Kinetic Classic 2019 Phenom Gymnastics 1 3 Older 8.950 29T 9.350 12T 9.300 10 9.225 12T 36.825 14T
2019-02-15 Big ClassicBIG CLASSIC Phenom Gymnastics 3A 3 Child E 9.275 3T 9.425 3 9.450 1 9.475 3T 37.625 1
2019-01-25 King Arthur Invitational Phenom Gymnastics 8 3 SR B 9.600 5T 9.750 2 9.450 4T 9.475 2 38.275 2
2019-01-18 2019 Bravo Classic Phenom Gymnastics 8B 3 Sr 9.075 11 9.625 1 9.400 3 9.550 2 37.650 2
2018-12-14 2018 Aspire Classic Phenom Gymnastics 2 3 Sr B 9.350 6T 9.700 3 9.325 3 9.750 2 38.125 3
2018-12-07 Horton Invite Phenom Gymnastics All 3 Sr A 9.300 5T 9.675 1 9.525 2 9.775 1 38.275 1
2018-05-03 Illinois USA Gymnastics Level 3 State Championships Phenom Gymnastics 1 3 Jr D 9.500 6T 9.475 2T 9.125 10T 9.375 7 37.475 4
2018-03-02 2018 Flip'r Invitational Phenom Gymnastics 7 3 Jr Age 9 9.050 5 9.325 4 9.200 2 8.950 8 36.525 6
2018-02-16 Big Classic Phenom Gymnastics 6B 3 Child C 8.900 12T 9.325 8T 9.125 6 9.050 9 36.400 9
2018-01-19 2018 Bravo Classic Phenom Gymnastics 8B 3 Jr 8.875 20T 8.900 13T 9.275 4T 8.900 15 35.950 14
2017-12-15 2017 Aspire Classic Phenom Gymnastics 11A 3 Older 9.425 12 9.300 18T 8.400 21 9.150 18T 36.275 19
2017-12-08 Horton Invite At IWU Shirk Center Phenom Gymnastics All 3 Jr A 9.475 2 9.100 7 9.175 4 8.725 8T 36.475 4
2017-11-16 Paul Hamm Thanksgiving Classic - Women Phenom Gymnastics 5 3 Middle 8.950 18T 8.250 25 8.900 17T 8.800 17 34.900 23
Get your scores on
a t-shirt, pin, or hoodie

www.lazysuits.com